createdAt,value
2018-04-22T00:03:28.195Z,101580.23
2018-04-22T00:08:30.783Z,101577.33
2018-04-22T00:13:33.262Z,101573.36
2018-04-22T00:18:35.869Z,101566.93
2018-04-22T00:23:38.459Z,101568.36
2018-04-22T00:28:41.037Z,101573.55
2018-04-22T00:33:43.622Z,101570.83
2018-04-22T00:38:46.173Z,101567.08
2018-04-22T00:43:48.657Z,101566.98
2018-04-22T00:48:51.140Z,101569.52
2018-04-22T00:54:05.307Z,101564.88
2018-04-22T00:59:07.808Z,101571.66
2018-04-22T01:04:10.335Z,101563.75
2018-04-22T01:09:15.296Z,101567.27
2018-04-22T01:14:17.784Z,101562.33
2018-04-22T01:19:20.346Z,101559.09
2018-04-22T01:24:22.898Z,101559.88
2018-04-22T01:29:25.378Z,101559.83
2018-04-22T01:34:27.843Z,101556.84
2018-04-22T01:39:31.420Z,101554.09
2018-04-22T01:44:34.299Z,101546.05
2018-04-22T01:49:37.682Z,101551.73
2018-04-22T01:54:40.235Z,101542.57
2018-04-22T01:59:44.003Z,101546.81
2018-04-22T02:04:46.477Z,101538.63
2018-04-22T02:09:48.944Z,101533.34
2018-04-22T02:14:51.450Z,101538.02
2018-04-22T02:19:53.973Z,101536.44
2018-04-22T02:24:56.659Z,101525.88
2018-04-22T02:29:59.812Z,101523.28
2018-04-22T02:35:02.293Z,101521.69
2018-04-22T02:40:04.790Z,101514.09
2018-04-22T02:45:07.362Z,101508.28
2018-04-22T02:50:10.622Z,101504.25
2018-04-22T02:55:13.379Z,101504.67
2018-04-22T03:00:15.855Z,101501.58
2018-04-22T03:05:18.325Z,101501.92
2018-04-22T03:10:20.787Z,101498.97
2018-04-22T03:15:23.245Z,101494.54
2018-04-22T03:20:25.735Z,101491.16
2018-04-22T03:25:28.232Z,101489.74
2018-04-22T03:30:30.865Z,101485.05
2018-04-22T03:35:33.345Z,101485.83
2018-04-22T03:40:37.052Z,101482.62
2018-04-22T03:45:39.726Z,101487.31
2018-04-22T03:50:42.520Z,101489.27
2018-04-22T03:55:45.048Z,101482.68
2018-04-22T04:00:48.220Z,101480.47
2018-04-22T04:05:51.714Z,101477.11
2018-04-22T04:10:54.218Z,101476.50
2018-04-22T04:15:56.705Z,101476.02
2018-04-22T04:21:11.590Z,101471.88
2018-04-22T04:31:56.049Z,101475.52
2018-04-22T04:36:58.548Z,101487.16
2018-04-22T04:42:01.032Z,101474.28
2018-04-22T04:47:04.165Z,101475.27
2018-04-22T04:52:07.079Z,101479.17
2018-04-22T04:57:09.648Z,101476.81
2018-04-22T05:02:12.352Z,101473.33
2018-04-22T05:07:14.874Z,101464.03
2018-04-22T05:12:17.372Z,101463.19
2018-04-22T05:17:20.017Z,101457.56
2018-04-22T05:22:22.961Z,101453.91
2018-04-22T05:27:25.425Z,101446.12
2018-04-22T05:32:27.942Z,101448.00
2018-04-22T05:37:34.334Z,101450.48
2018-04-22T05:42:36.929Z,101446.19
2018-04-22T05:47:39.569Z,101449.88
2018-04-22T05:52:42.090Z,101446.07
2018-04-22T05:57:45.113Z,101447.30
2018-04-22T06:02:47.903Z,101438.56
2018-04-22T06:07:50.391Z,101437.28
2018-04-22T06:12:53.385Z,101437.39
2018-04-22T06:17:55.901Z,101443.94
2018-04-22T06:22:58.378Z,101442.70
2018-04-22T06:28:01.091Z,101437.44
2018-04-22T06:33:03.558Z,101423.98
2018-04-22T06:38:17.196Z,101428.24
2018-04-22T12:49:10.754Z,101105.55
2018-04-22T12:54:13.284Z,101096.52
2018-04-22T12:59:15.932Z,101088.65
2018-04-22T13:04:18.520Z,101085.48
2018-04-22T13:09:21.013Z,101074.34
2018-04-22T13:14:23.587Z,101067.71
2018-04-22T13:19:26.062Z,101066.09
2018-04-22T13:24:28.583Z,101054.36
2018-04-22T13:29:31.054Z,101044.82
2018-04-22T13:34:33.518Z,101029.38
2018-04-22T13:39:36.075Z,101020.67
2018-04-22T13:44:38.546Z,101017.94
2018-04-22T13:49:41.173Z,101002.89
2018-04-22T13:54:44.942Z,100990.55
2018-04-22T13:59:47.487Z,100997.17
2018-04-22T14:04:49.957Z,100981.39
2018-04-22T14:09:52.436Z,100986.81
2018-04-22T14:14:54.972Z,100984.56
2018-04-22T14:19:57.525Z,100976.79
2018-04-22T14:24:59.993Z,100968.97
2018-04-22T14:30:02.479Z,100965.00
2018-04-22T14:35:05.001Z,100968.30
2018-04-22T14:40:08.512Z,100958.59
2018-04-22T14:45:22.830Z,100948.88
2018-04-22T14:50:25.322Z,100936.23
2018-04-22T14:55:27.801Z,100941.86
2018-04-22T15:00:30.403Z,100933.50
2018-04-22T15:05:32.850Z,100927.41
2018-04-22T15:10:35.358Z,100916.84
2018-04-22T15:15:40.006Z,100906.30
2018-04-22T15:20:42.671Z,100903.65
2018-04-22T15:25:45.161Z,100904.36
2018-04-22T15:30:47.632Z,100894.98
2018-04-22T15:35:50.160Z,100901.47
2018-04-22T15:40:52.617Z,100899.80
2018-04-22T15:45:55.404Z,100887.02
2018-04-22T15:50:57.862Z,100883.36
2018-04-22T15:56:00.380Z,100871.02
2018-04-22T16:01:02.852Z,100876.09
2018-04-22T16:06:05.377Z,100863.98
2018-04-22T16:11:09.391Z,100854.58
2018-04-22T16:16:11.961Z,100851.69
2018-04-22T16:21:14.687Z,100855.88
2018-04-22T16:26:17.163Z,100849.43
2018-04-22T16:31:19.705Z,100858.77
2018-04-22T16:36:22.171Z,100867.02
2018-04-22T16:41:24.705Z,100855.78
2018-04-22T16:46:27.142Z,100842.99
2018-04-22T16:51:29.638Z,100837.92
2018-04-22T16:56:32.126Z,100844.20
2018-04-22T17:01:34.611Z,100836.31
2018-04-22T17:06:46.550Z,100837.23
2018-04-22T17:11:50.777Z,100829.01
2018-04-22T17:16:53.236Z,100832.48
2018-04-22T17:21:55.713Z,100828.95
2018-04-22T17:26:58.191Z,100821.73
2018-04-22T17:32:00.688Z,100820.27
2018-04-22T17:37:03.191Z,100811.17
2018-04-22T17:42:05.795Z,100810.36
2018-04-22T17:47:08.696Z,100814.27
2018-04-22T17:52:11.444Z,100811.87
2018-04-22T17:57:14.296Z,100802.77
2018-04-22T18:02:16.853Z,100804.18
2018-04-22T18:07:19.344Z,100823.14
2018-04-22T18:12:21.807Z,100821.06
2018-04-22T18:17:24.312Z,100816.93
2018-04-22T18:22:33.731Z,100816.39
2018-04-22T18:27:44.657Z,100817.91
2018-04-22T18:32:48.708Z,100818.76
2018-04-22T18:37:51.197Z,100818.08
2018-04-22T18:42:53.757Z,100816.44
2018-04-22T18:47:56.265Z,100815.23
2018-04-22T18:52:58.726Z,100818.26
2018-04-22T18:58:01.235Z,100816.80
2018-04-22T19:03:05.476Z,100818.09
2018-04-22T19:08:09.297Z,100817.45
2018-04-22T19:13:11.912Z,100800.70
2018-04-22T19:18:14.435Z,100803.28
2018-04-22T19:23:16.937Z,100810.59
2018-04-22T19:28:20.272Z,100809.48
2018-04-22T19:33:22.746Z,100805.66
2018-04-22T19:38:25.305Z,100809.48
2018-04-22T19:43:27.782Z,100805.55
2018-04-22T19:48:30.263Z,100802.32
2018-04-22T19:53:32.755Z,100799.79
2018-04-22T19:58:35.429Z,100799.00
2018-04-22T20:03:37.915Z,100797.59
2018-04-22T20:08:40.501Z,100799.94
2018-04-22T20:13:43.007Z,100802.48
2018-04-22T20:18:45.625Z,100793.04
2018-04-22T20:23:48.139Z,100792.66
2018-04-22T20:28:50.610Z,100793.17
2018-04-22T20:33:53.084Z,100789.03
2018-04-22T20:38:56.698Z,100783.30
2018-04-22T20:44:00.620Z,100789.59
2018-04-22T20:49:03.180Z,100786.35
2018-04-22T20:54:05.682Z,100789.91
2018-04-22T20:59:08.278Z,100904.27
2018-04-22T21:04:10.848Z,100896.36
2018-04-22T21:09:13.408Z,100898.61
2018-04-22T21:14:15.970Z,100898.64
2018-04-22T21:19:18.424Z,100887.69
2018-04-22T21:24:20.921Z,100881.20
2018-04-22T21:29:23.387Z,100880.48
2018-04-22T21:34:25.858Z,100873.12
2018-04-22T21:39:28.694Z,100873.49
2018-04-22T21:44:42.887Z,100878.30
2018-04-22T21:49:45.926Z,100887.19
2018-04-22T21:54:48.439Z,100887.84
2018-04-22T21:59:50.961Z,100873.50
2018-04-22T22:04:53.413Z,100861.27
2018-04-22T22:09:55.904Z,100842.12
2018-04-22T22:14:58.359Z,100833.80
2018-04-22T22:20:00.857Z,100790.34
2018-04-22T22:25:03.326Z,100782.89
2018-04-22T22:30:05.857Z,100780.38
2018-04-22T22:35:08.417Z,100770.95
2018-04-22T22:40:10.964Z,100758.90
2018-04-22T22:45:13.514Z,100768.66
2018-04-22T22:50:16.011Z,100766.89
2018-04-22T22:55:18.483Z,100775.00
2018-04-22T23:00:21.755Z,100783.52
2018-04-22T23:05:24.251Z,100791.62
2018-04-22T23:10:26.719Z,100800.38
2018-04-22T23:15:29.172Z,100791.73
2018-04-22T23:20:31.634Z,100775.77
2018-04-22T23:25:34.185Z,100767.92
2018-04-22T23:30:36.695Z,100760.62
2018-04-22T23:35:39.635Z,100745.91
2018-04-22T23:40:42.165Z,100721.92
2018-04-22T23:45:44.729Z,100715.66
2018-04-22T23:50:47.257Z,100706.89
2018-04-22T23:55:49.740Z,100704.60
